sensor_id;sensor_type;location;lat;lon;timestamp;pressure;altitude;pressure_sealevel;temperature;humidity
67517;BME280;54359;59.124;37.910;2023-02-20T00:00:54;98378.25;;;-9.27;72.21
67517;BME280;54359;59.124;37.910;2023-02-20T00:03:20;98360.97;;;-9.39;72.72
67517;BME280;54359;59.124;37.910;2023-02-20T00:05:46;98378.75;;;-9.33;72.19
67517;BME280;54359;59.124;37.910;2023-02-20T00:08:12;98382.78;;;-9.35;72.29
67517;BME280;54359;59.124;37.910;2023-02-20T00:10:38;98370.53;;;-9.45;72.24
67517;BME280;54359;59.124;37.910;2023-02-20T00:13:04;98389.75;;;-9.43;72.17
67517;BME280;54359;59.124;37.910;2023-02-20T00:15:30;98389.53;;;-9.46;72.25
67517;BME280;54359;59.124;37.910;2023-02-20T00:17:56;98395.31;;;-9.47;72.33
67517;BME280;54359;59.124;37.910;2023-02-20T00:20:23;98385.63;;;-9.56;71.82
67517;BME280;54359;59.124;37.910;2023-02-20T00:22:51;98400.16;;;-9.48;73.33
67517;BME280;54359;59.124;37.910;2023-02-20T00:25:18;98376.53;;;-9.68;72.75
67517;BME280;54359;59.124;37.910;2023-02-20T00:27:45;98395.59;;;-9.56;73.16
67517;BME280;54359;59.124;37.910;2023-02-20T00:30:18;98387.75;;;-9.62;73.13
67517;BME280;54359;59.124;37.910;2023-02-20T00:32:45;98383.34;;;-9.66;73.28
67517;BME280;54359;59.124;37.910;2023-02-20T00:35:14;98390.97;;;-9.63;73.25
67517;BME280;54359;59.124;37.910;2023-02-20T00:37:40;98388.31;;;-9.66;73.18
67517;BME280;54359;59.124;37.910;2023-02-20T00:40:06;98395.09;;;-9.63;72.71
67517;BME280;54359;59.124;37.910;2023-02-20T00:42:33;98382.28;;;-9.69;72.29
67517;BME280;54359;59.124;37.910;2023-02-20T00:45:04;98400.91;;;-9.63;72.65
67517;BME280;54359;59.124;37.910;2023-02-20T00:47:30;98400.91;;;-9.63;72.85
67517;BME280;54359;59.124;37.910;2023-02-20T00:50:00;98392.59;;;-9.63;72.64
67517;BME280;54359;59.124;37.910;2023-02-20T00:52:26;98392.72;;;-9.62;73.12
67517;BME280;54359;59.124;37.910;2023-02-20T00:54:55;98392.41;;;-9.66;72.56
67517;BME280;54359;59.124;37.910;2023-02-20T00:57:21;98391.94;;;-9.61;72.27
67517;BME280;54359;59.124;37.910;2023-02-20T00:59:47;98384.38;;;-9.62;73.68
67517;BME280;54359;59.124;37.910;2023-02-20T01:02:14;98388.97;;;-9.55;73.58
67517;BME280;54359;59.124;37.910;2023-02-20T01:04:40;98373.78;;;-9.60;72.74
67517;BME280;54359;59.124;37.910;2023-02-20T01:07:08;98372.81;;;-9.62;72.54
67517;BME280;54359;59.124;37.910;2023-02-20T01:09:37;98374.53;;;-9.61;72.54
67517;BME280;54359;59.124;37.910;2023-02-20T01:12:03;98388.13;;;-9.56;73.08
67517;BME280;54359;59.124;37.910;2023-02-20T01:14:29;98388.03;;;-9.57;72.01
67517;BME280;54359;59.124;37.910;2023-02-20T01:16:54;98388.59;;;-9.61;72.73
67517;BME280;54359;59.124;37.910;2023-02-20T01:19:22;98384.88;;;-9.68;72.79
67517;BME280;54359;59.124;37.910;2023-02-20T01:21:48;98385.44;;;-9.72;73.74
67517;BME280;54359;59.124;37.910;2023-02-20T01:24:15;98386.84;;;-9.76;72.48
67517;BME280;54359;59.124;37.910;2023-02-20T01:26:43;98398.31;;;-9.78;72.69
67517;BME280;54359;59.124;37.910;2023-02-20T01:29:10;98393.72;;;-9.85;73.79
67517;BME280;54359;59.124;37.910;2023-02-20T01:31:35;98393.63;;;-9.86;72.96
67517;BME280;54359;59.124;37.910;2023-02-20T01:34:02;98383.94;;;-9.95;72.74
67517;BME280;54359;59.124;37.910;2023-02-20T01:36:28;98388.91;;;-9.95;72.66
67517;BME280;54359;59.124;37.910;2023-02-20T01:38:57;98388.06;;;-9.96;73.40
67517;BME280;54359;59.124;37.910;2023-02-20T01:41:23;98386.13;;;-10.00;73.35
67517;BME280;54359;59.124;37.910;2023-02-20T01:43:50;98404.59;;;-9.96;74.07
67517;BME280;54359;59.124;37.910;2023-02-20T01:46:40;98397.81;;;-9.99;73.09
67517;BME280;54359;59.124;37.910;2023-02-20T01:49:11;98401.44;;;-10.07;72.74
67517;BME280;54359;59.124;37.910;2023-02-20T01:51:43;98403.34;;;-10.03;73.56
67517;BME280;54359;59.124;37.910;2023-02-20T01:54:14;98396.47;;;-10.07;72.62
67517;BME280;54359;59.124;37.910;2023-02-20T01:56:43;98409.72;;;-10.06;72.47
67517;BME280;54359;59.124;37.910;2023-02-20T01:59:13;98399.28;;;-10.14;73.33
67517;BME280;54359;59.124;37.910;2023-02-20T02:01:39;98407.91;;;-10.09;73.24
67517;BME280;54359;59.124;37.910;2023-02-20T02:04:07;98407.50;;;-10.15;73.13
67517;BME280;54359;59.124;37.910;2023-02-20T02:06:38;98410.97;;;-10.13;72.46
67517;BME280;54359;59.124;37.910;2023-02-20T02:09:16;98396.97;;;-10.24;73.16
67517;BME280;54359;59.124;37.910;2023-02-20T02:11:50;98407.84;;;-10.22;74.18
67517;BME280;54359;59.124;37.910;2023-02-20T02:14:16;98411.69;;;-10.27;73.45
67517;BME280;54359;59.124;37.910;2023-02-20T02:16:55;98400.47;;;-10.34;73.43
67517;BME280;54359;59.124;37.910;2023-02-20T02:38:52;98425.41;;;-10.58;72.56
67517;BME280;54359;59.124;37.910;2023-02-20T02:41:43;98434.38;;;-10.60;72.77
67517;BME280;54359;59.124;37.910;2023-02-20T02:47:03;98425.84;;;-10.63;74.18
67517;BME280;54359;59.124;37.910;2023-02-20T02:49:57;98437.31;;;-10.65;72.45
67517;BME280;54359;59.124;37.910;2023-02-20T02:52:23;98433.09;;;-10.66;73.33
67517;BME280;54359;59.124;37.910;2023-02-20T02:55:11;98433.66;;;-10.70;73.21
67517;BME280;54359;59.124;37.910;2023-02-20T02:57:39;98425.88;;;-10.75;73.45
67517;BME280;54359;59.124;37.910;2023-02-20T03:00:21;98437.44;;;-10.76;74.21
67517;BME280;54359;59.124;37.910;2023-02-20T03:02:54;98439.72;;;-10.79;73.59
67517;BME280;54359;59.124;37.910;2023-02-20T03:05:28;98442.31;;;-10.89;73.09
67517;BME280;54359;59.124;37.910;2023-02-20T03:08:10;98420.13;;;-10.99;73.77
67517;BME280;54359;59.124;37.910;2023-02-20T03:10:41;98429.28;;;-10.98;72.74
67517;BME280;54359;59.124;37.910;2023-02-20T03:13:10;98447.72;;;-10.95;72.56
67517;BME280;54359;59.124;37.910;2023-02-20T03:15:43;98441.56;;;-11.00;73.42
67517;BME280;54359;59.124;37.910;2023-02-20T03:18:34;98423.25;;;-11.14;73.80
67517;BME280;54359;59.124;37.910;2023-02-20T03:21:14;98424.22;;;-11.23;73.71
67517;BME280;54359;59.124;37.910;2023-02-20T03:23:44;98429.19;;;-11.23;73.73
67517;BME280;54359;59.124;37.910;2023-02-20T03:26:17;98445.78;;;-11.22;73.11
67517;BME280;54359;59.124;37.910;2023-02-20T03:28:53;98431.53;;;-11.37;73.25
67517;BME280;54359;59.124;37.910;2023-02-20T03:31:25;98454.66;;;-11.26;73.07
67517;BME280;54359;59.124;37.910;2023-02-20T03:34:02;98444.72;;;-11.38;72.67
67517;BME280;54359;59.124;37.910;2023-02-20T03:37:11;98403.06;;;-11.65;73.91
67517;BME280;54359;59.124;37.910;2023-02-20T03:40:00;98439.75;;;-11.49;73.30
67517;BME280;54359;59.124;37.910;2023-02-20T03:42:53;98462.59;;;-11.42;72.97
67517;BME280;54359;59.124;37.910;2023-02-20T03:45:41;98449.44;;;-11.52;73.74
67517;BME280;54359;59.124;37.910;2023-02-20T03:48:25;98452.91;;;-11.50;73.73
67517;BME280;54359;59.124;37.910;2023-02-20T03:50:52;98450.06;;;-11.55;72.97
67517;BME280;54359;59.124;37.910;2023-02-20T03:53:51;98454.28;;;-11.54;73.54
67517;BME280;54359;59.124;37.910;2023-02-20T03:56:27;98462.69;;;-11.52;73.31
67517;BME280;54359;59.124;37.910;2023-02-20T03:59:17;98451.50;;;-11.59;73.73
67517;BME280;54359;59.124;37.910;2023-02-20T04:01:48;98462.69;;;-11.52;73.29
67517;BME280;54359;59.124;37.910;2023-02-20T04:04:20;98448.03;;;-11.61;73.95
67517;BME280;54359;59.124;37.910;2023-02-20T04:06:49;98444.03;;;-11.70;73.11
67517;BME280;54359;59.124;37.910;2023-02-20T04:09:27;98444.47;;;-11.64;73.75
67517;BME280;54359;59.124;37.910;2023-02-20T04:14:59;98448.88;;;-11.72;73.71
67517;BME280;54359;59.124;37.910;2023-02-20T04:17:30;98459.22;;;-11.66;73.80
67517;BME280;54359;59.124;37.910;2023-02-20T04:19:57;98448.22;;;-11.69;73.25
67517;BME280;54359;59.124;37.910;2023-02-20T04:22:27;98432.38;;;-11.83;73.25
67517;BME280;54359;59.124;37.910;2023-02-20T04:25:00;98457.91;;;-11.72;73.88
67517;BME280;54359;59.124;37.910;2023-02-20T04:27:31;98456.31;;;-11.72;73.32
67517;BME280;54359;59.124;37.910;2023-02-20T04:29:59;98454.69;;;-11.71;74.01
67517;BME280;54359;59.124;37.910;2023-02-20T04:32:26;98454.34;;;-11.76;73.19
67517;BME280;54359;59.124;37.910;2023-02-20T04:34:52;98448.75;;;-11.85;73.64
67517;BME280;54359;59.124;37.910;2023-02-20T04:37:19;98454.56;;;-11.85;73.49
67517;BME280;54359;59.124;37.910;2023-02-20T04:39:52;98451.22;;;-11.85;74.36
67517;BME280;54359;59.124;37.910;2023-02-20T04:42:17;98456.78;;;-11.88;73.79
67517;BME280;54359;59.124;37.910;2023-02-20T04:44:44;98458.13;;;-11.93;73.73
67517;BME280;54359;59.124;37.910;2023-02-20T04:47:14;98457.66;;;-11.99;73.70
67517;BME280;54359;59.124;37.910;2023-02-20T04:49:40;98461.97;;;-11.97;73.53
67517;BME280;54359;59.124;37.910;2023-02-20T04:52:08;98472.41;;;-12.01;73.63
67517;BME280;54359;59.124;37.910;2023-02-20T04:54:35;98458.72;;;-12.07;73.76
67517;BME280;54359;59.124;37.910;2023-02-20T04:57:04;98446.59;;;-12.26;73.28
67517;BME280;54359;59.124;37.910;2023-02-20T04:59:32;98471.81;;;-12.20;73.61
67517;BME280;54359;59.124;37.910;2023-02-20T05:02:00;98436.84;;;-12.47;73.22
67517;BME280;54359;59.124;37.910;2023-02-20T05:04:27;98460.75;;;-12.36;73.35
67517;BME280;54359;59.124;37.910;2023-02-20T05:06:57;98459.31;;;-12.44;73.92
67517;BME280;54359;59.124;37.910;2023-02-20T05:09:24;98466.09;;;-12.41;73.97
67517;BME280;54359;59.124;37.910;2023-02-20T05:11:51;98470.84;;;-12.44;73.84
67517;BME280;54359;59.124;37.910;2023-02-20T05:14:23;98485.81;;;-12.43;73.48
67517;BME280;54359;59.124;37.910;2023-02-20T05:16:49;98478.53;;;-12.51;74.06
67517;BME280;54359;59.124;37.910;2023-02-20T05:19:17;98465.47;;;-12.61;73.83
67517;BME280;54359;59.124;37.910;2023-02-20T05:21:44;98483.25;;;-12.54;73.83
67517;BME280;54359;59.124;37.910;2023-02-20T05:24:35;98461.69;;;-12.67;73.50
67517;BME280;54359;59.124;37.910;2023-02-20T05:27:12;98466.13;;;-12.63;73.79
67517;BME280;54359;59.124;37.910;2023-02-20T05:29:49;98475.31;;;-12.50;73.71
67517;BME280;54359;59.124;37.910;2023-02-20T05:32:23;98484.19;;;-12.42;73.62
67517;BME280;54359;59.124;37.910;2023-02-20T05:34:58;98487.13;;;-12.36;73.86
67517;BME280;54359;59.124;37.910;2023-02-20T05:37:26;98477.56;;;-12.31;73.80
67517;BME280;54359;59.124;37.910;2023-02-20T05:39:54;98481.13;;;-12.28;73.84
67517;BME280;54359;59.124;37.910;2023-02-20T05:42:22;98468.75;;;-12.28;73.84
67517;BME280;54359;59.124;37.910;2023-02-20T05:44:51;98448.50;;;-12.34;73.20
67517;BME280;54359;59.124;37.910;2023-02-20T05:47:43;98483.16;;;-12.12;73.73
67517;BME280;54359;59.124;37.910;2023-02-20T05:50:12;98486.59;;;-12.10;73.54
67517;BME280;54359;59.124;37.910;2023-02-20T05:52:41;98480.25;;;-12.06;73.43
67517;BME280;54359;59.124;37.910;2023-02-20T05:55:34;98475.41;;;-12.05;73.38
67517;BME280;54359;59.124;37.910;2023-02-20T05:58:06;98473.69;;;-12.06;73.70
67517;BME280;54359;59.124;37.910;2023-02-20T06:00:39;98474.16;;;-12.00;73.77
67517;BME280;54359;59.124;37.910;2023-02-20T06:03:06;98486.47;;;-11.89;74.01
67517;BME280;54359;59.124;37.910;2023-02-20T06:05:33;98486.88;;;-11.83;74.08
67517;BME280;54359;59.124;37.910;2023-02-20T06:07:59;98490.13;;;-11.72;73.83
67517;BME280;54359;59.124;37.910;2023-02-20T06:10:27;98477.94;;;-11.69;73.82
67517;BME280;54359;59.124;37.910;2023-02-20T06:13:00;98481.75;;;-11.63;73.44
67517;BME280;54359;59.124;37.910;2023-02-20T06:15:26;98488.47;;;-11.50;74.12
67517;BME280;54359;59.124;37.910;2023-02-20T06:17:54;98489.88;;;-11.42;72.73
67517;BME280;54359;59.124;37.910;2023-02-20T06:20:21;98488.69;;;-11.35;74.29
67517;BME280;54359;59.124;37.910;2023-02-20T06:22:47;98489.00;;;-11.30;74.10
67517;BME280;54359;59.124;37.910;2023-02-20T06:25:15;98483.88;;;-11.22;73.79
67517;BME280;54359;59.124;37.910;2023-02-20T06:27:43;98487.31;;;-11.20;73.21
67517;BME280;54359;59.124;37.910;2023-02-20T06:30:12;98483.88;;;-11.22;73.46
67517;BME280;54359;59.124;37.910;2023-02-20T06:32:39;98458.50;;;-11.29;73.17
67517;BME280;54359;59.124;37.910;2023-02-20T06:35:05;98475.97;;;-11.16;73.94
67517;BME280;54359;59.124;37.910;2023-02-20T06:37:31;98482.34;;;-11.08;74.02
67517;BME280;54359;59.124;37.910;2023-02-20T06:39:57;98499.50;;;-10.99;73.56
67517;BME280;54359;59.124;37.910;2023-02-20T06:42:24;98483.00;;;-10.99;73.13
67517;BME280;54359;59.124;37.910;2023-02-20T06:44:54;98492.81;;;-11.00;73.32
67517;BME280;54359;59.124;37.910;2023-02-20T06:47:23;98484.81;;;-10.96;73.06
67517;BME280;54359;59.124;37.910;2023-02-20T06:49:51;98469.50;;;-11.02;74.07
67517;BME280;54359;59.124;37.910;2023-02-20T06:52:18;98471.97;;;-11.02;72.99
67517;BME280;54359;59.124;37.910;2023-02-20T06:54:49;98485.06;;;-10.93;74.10
67517;BME280;54359;59.124;37.910;2023-02-20T06:57:19;98446.97;;;-11.17;73.71
67517;BME280;54359;59.124;37.910;2023-02-20T06:59:45;98471.56;;;-10.97;73.34
67517;BME280;54359;59.124;37.910;2023-02-20T07:02:14;98469.50;;;-10.90;73.16
67517;BME280;54359;59.124;37.910;2023-02-20T07:04:40;98477.50;;;-10.83;73.94
67517;BME280;54359;59.124;37.910;2023-02-20T07:07:06;98483.59;;;-10.66;74.29
67517;BME280;54359;59.124;37.910;2023-02-20T07:09:32;98477.00;;;-10.65;74.53
67517;BME280;54359;59.124;37.910;2023-02-20T07:11:59;98478.09;;;-10.62;73.57
67517;BME280;54359;59.124;37.910;2023-02-20T07:14:25;98479.69;;;-10.50;73.92
67517;BME280;54359;59.124;37.910;2023-02-20T07:16:52;98494.38;;;-10.42;73.17
67517;BME280;54359;59.124;37.910;2023-02-20T07:19:19;98487.75;;;-10.41;72.99
67517;BME280;54359;59.124;37.910;2023-02-20T07:21:53;98482.81;;;-10.41;73.61
67517;BME280;54359;59.124;37.910;2023-02-20T07:24:19;98485.88;;;-10.32;73.18
67517;BME280;54359;59.124;37.910;2023-02-20T07:26:46;98485.81;;;-10.34;72.82
67517;BME280;54359;59.124;37.910;2023-02-20T07:29:12;98456.69;;;-10.48;73.30
67517;BME280;54359;59.124;37.910;2023-02-20T07:31:38;98468.03;;;-10.26;74.17
67517;BME280;54359;59.124;37.910;2023-02-20T07:34:04;98473.63;;;-10.17;72.94
67517;BME280;54359;59.124;37.910;2023-02-20T07:36:37;98441.38;;;-10.29;72.73
67517;BME280;54359;59.124;37.910;2023-02-20T07:39:07;98500.09;;;-9.93;72.70
67517;BME280;54359;59.124;37.910;2023-02-20T07:41:36;98492.72;;;-9.91;73.81
67517;BME280;54359;59.124;37.910;2023-02-20T07:44:05;98477.59;;;-9.82;72.95
67517;BME280;54359;59.124;37.910;2023-02-20T07:46:34;98476.06;;;-9.80;72.37
67517;BME280;54359;59.124;37.910;2023-02-20T07:49:02;98480.75;;;-9.72;72.42
67517;BME280;54359;59.124;37.910;2023-02-20T07:51:30;98470.81;;;-9.72;73.00
67517;BME280;54359;59.124;37.910;2023-02-20T07:53:56;98433.00;;;-9.93;73.13
67517;BME280;54359;59.124;37.910;2023-02-20T07:56:23;98489.72;;;-9.48;72.70
67517;BME280;54359;59.124;37.910;2023-02-20T07:58:50;98485.59;;;-9.48;73.34
67517;BME280;54359;59.124;37.910;2023-02-20T08:01:19;98442.13;;;-9.66;73.55
67517;BME280;54359;59.124;37.910;2023-02-20T08:03:45;98480.72;;;-9.46;73.16
67517;BME280;54359;59.124;37.910;2023-02-20T08:06:12;98494.50;;;-9.38;73.23
67517;BME280;54359;59.124;37.910;2023-02-20T08:08:38;98488.69;;;-9.25;72.63
67517;BME280;54359;59.124;37.910;2023-02-20T08:11:05;98496.28;;;-9.11;73.84
67517;BME280;54359;59.124;37.910;2023-02-20T08:13:32;98474.16;;;-9.06;73.75
67517;BME280;54359;59.124;37.910;2023-02-20T08:15:59;98464.09;;;-9.07;72.58
67517;BME280;54359;59.124;37.910;2023-02-20T08:18:26;98491.00;;;-8.88;73.25
67517;BME280;54359;59.124;37.910;2023-02-20T08:20:51;98454.22;;;-9.19;72.48
67517;BME280;54359;59.124;37.910;2023-02-20T08:23:19;98442.09;;;-9.28;73.11
67517;BME280;54359;59.124;37.910;2023-02-20T08:25:47;98443.50;;;-9.32;73.07
67517;BME280;54359;59.124;37.910;2023-02-20T08:28:14;98490.34;;;-8.99;73.23
67517;BME280;54359;59.124;37.910;2023-02-20T08:30:41;98490.53;;;-8.96;72.86
67517;BME280;54359;59.124;37.910;2023-02-20T08:33:11;98473.13;;;-8.96;72.99
67517;BME280;54359;59.124;37.910;2023-02-20T08:35:38;98483.16;;;-8.81;72.71
67517;BME280;54359;59.124;37.910;2023-02-20T08:38:06;98435.41;;;-9.02;73.18
67517;BME280;54359;59.124;37.910;2023-02-20T08:40:34;98491.56;;;-8.53;73.33
67517;BME280;54359;59.124;37.910;2023-02-20T08:43:01;98470.56;;;-8.56;72.69
67517;BME280;54359;59.124;37.910;2023-02-20T08:45:32;98470.84;;;-8.52;72.74
67517;BME280;54359;59.124;37.910;2023-02-20T08:47:58;98472.69;;;-8.49;72.23
67517;BME280;54359;59.124;37.910;2023-02-20T08:50:26;98494.91;;;-8.37;72.56
67517;BME280;54359;59.124;37.910;2023-02-20T08:52:51;98446.25;;;-8.60;73.19
67517;BME280;54359;59.124;37.910;2023-02-20T08:55:21;98488.88;;;-8.27;72.84
67517;BME280;54359;59.124;37.910;2023-02-20T08:57:46;98480.81;;;-8.23;72.87
67517;BME280;54359;59.124;37.910;2023-02-20T09:00:14;98470.09;;;-8.22;72.43
67517;BME280;54359;59.124;37.910;2023-02-20T09:02:43;98465.69;;;-8.26;72.77
67517;BME280;54359;59.124;37.910;2023-02-20T09:05:11;98455.19;;;-8.21;72.77
67517;BME280;54359;59.124;37.910;2023-02-20T09:07:37;98454.56;;;-8.32;72.53
67517;BME280;54359;59.124;37.910;2023-02-20T09:10:04;98450.31;;;-8.47;72.47
67517;BME280;54359;59.124;37.910;2023-02-20T09:12:32;98454.66;;;-8.45;73.54
67517;BME280;54359;59.124;37.910;2023-02-20T09:14:59;98454.81;;;-8.42;73.30
67517;BME280;54359;59.124;37.910;2023-02-20T09:17:26;98461.78;;;-8.36;72.49
67517;BME280;54359;59.124;37.910;2023-02-20T09:19:53;98447.25;;;-8.43;72.55
67517;BME280;54359;59.124;37.910;2023-02-20T09:22:34;98463.66;;;-8.47;72.69
67517;BME280;54359;59.124;37.910;2023-02-20T09:25:02;98456.84;;;-8.50;72.53
67517;BME280;54359;59.124;37.910;2023-02-20T09:27:30;98445.94;;;-8.52;72.94
67517;BME280;54359;59.124;37.910;2023-02-20T09:29:57;98469.03;;;-8.26;72.66
67517;BME280;54359;59.124;37.910;2023-02-20T09:32:24;98473.09;;;-8.13;73.23
67517;BME280;54359;59.124;37.910;2023-02-20T09:34:51;98444.56;;;-8.18;72.92
67517;BME280;54359;59.124;37.910;2023-02-20T09:37:21;98461.56;;;-7.98;73.17
67517;BME280;54359;59.124;37.910;2023-02-20T09:39:48;98463.63;;;-7.91;72.47
67517;BME280;54359;59.124;37.910;2023-02-20T09:45:19;98458.34;;;-7.67;71.70
67517;BME280;54359;59.124;37.910;2023-02-20T09:48:05;98456.94;;;-7.62;72.51
67517;BME280;54359;59.124;37.910;2023-02-20T09:50:38;98452.06;;;-7.60;72.04
67517;BME280;54359;59.124;37.910;2023-02-20T09:55:57;98427.00;;;-7.47;71.39
67517;BME280;54359;59.124;37.910;2023-02-20T09:58:40;98434.31;;;-7.35;72.54
67517;BME280;54359;59.124;37.910;2023-02-20T10:01:15;98426.66;;;-7.23;72.69
67517;BME280;54359;59.124;37.910;2023-02-20T10:06:26;98434.50;;;-6.86;71.57
67517;BME280;54359;59.124;37.910;2023-02-20T10:08:57;98434.69;;;-6.83;71.31
67517;BME280;54359;59.124;37.910;2023-02-20T10:14:25;98430.94;;;-6.75;71.84
67517;BME280;54359;59.124;37.910;2023-02-20T10:17:17;98422.91;;;-6.69;72.99
67517;BME280;54359;59.124;37.910;2023-02-20T10:20:08;98409.47;;;-6.71;72.39
67517;BME280;54359;59.124;37.910;2023-02-20T10:25:27;98414.44;;;-6.56;72.79
67517;BME280;54359;59.124;37.910;2023-02-20T10:28:10;98408.94;;;-6.65;72.37
67517;BME280;54359;59.124;37.910;2023-02-20T10:30:59;98406.63;;;-6.62;72.40
67517;BME280;54359;59.124;37.910;2023-02-20T10:33:53;98403.19;;;-6.64;71.55
67517;BME280;54359;59.124;37.910;2023-02-20T10:36:36;98344.25;;;-6.92;72.66
67517;BME280;54359;59.124;37.910;2023-02-20T10:39:09;98382.31;;;-6.65;72.37
67517;BME280;54359;59.124;37.910;2023-02-20T10:44:40;98397.94;;;-6.36;71.96
67517;BME280;54359;59.124;37.910;2023-02-20T10:47:21;98397.16;;;-6.19;72.82
67517;BME280;54359;59.124;37.910;2023-02-20T10:50:07;98397.25;;;-6.01;72.49
67517;BME280;54359;59.124;37.910;2023-02-20T10:52:58;98366.13;;;-6.06;71.67
67517;BME280;54359;59.124;37.910;2023-02-20T10:55:38;98369.09;;;-5.97;71.76
67517;BME280;54359;59.124;37.910;2023-02-20T11:00:53;98393.94;;;-5.30;73.14
67517;BME280;54359;59.124;37.910;2023-02-20T11:06:58;98364.00;;;-4.14;72.44
67517;BME280;54359;59.124;37.910;2023-02-20T11:09:41;98323.72;;;-3.96;71.66
67517;BME280;54359;59.124;37.910;2023-02-20T11:12:40;98370.53;;;-3.35;72.17
67517;BME280;54359;59.124;37.910;2023-02-20T11:15:09;98347.94;;;-3.13;71.66
67517;BME280;54359;59.124;37.910;2023-02-20T11:17:40;98368.44;;;-2.57;71.57
67517;BME280;54359;59.124;37.910;2023-02-20T11:23:04;98345.41;;;-1.95;71.38
67517;BME280;54359;59.124;37.910;2023-02-20T11:25:33;98358.50;;;-1.54;71.25
67517;BME280;54359;59.124;37.910;2023-02-20T11:28:26;98359.81;;;-1.13;71.83
67517;BME280;54359;59.124;37.910;2023-02-20T11:31:01;98313.16;;;-0.98;71.68
67517;BME280;54359;59.124;37.910;2023-02-20T11:33:41;98318.97;;;-0.41;70.99
67517;BME280;54359;59.124;37.910;2023-02-20T11:36:24;98348.81;;;0.06;71.23
67517;BME280;54359;59.124;37.910;2023-02-20T11:39:03;98300.53;;;-0.05;71.12
67517;BME280;54359;59.124;37.910;2023-02-20T11:41:39;98320.91;;;0.35;71.19
67517;BME280;54359;59.124;37.910;2023-02-20T11:44:21;98318.34;;;0.70;71.23
67517;BME280;54359;59.124;37.910;2023-02-20T11:49:35;98262.09;;;0.82;71.02
67517;BME280;54359;59.124;37.910;2023-02-20T11:52:21;98316.38;;;1.37;70.67
67517;BME280;54359;59.124;37.910;2023-02-20T11:55:22;98309.78;;;1.44;70.70
67517;BME280;54359;59.124;37.910;2023-02-20T11:57:59;98319.63;;;1.74;71.26
67517;BME280;54359;59.124;37.910;2023-02-20T12:00:53;98277.47;;;1.77;71.15
67517;BME280;54359;59.124;37.910;2023-02-20T12:03:28;98316.31;;;2.27;71.02
67517;BME280;54359;59.124;37.910;2023-02-20T12:09:37;98269.31;;;2.47;71.01
67517;BME280;54359;59.124;37.910;2023-02-20T12:12:25;98309.34;;;2.65;71.26
67517;BME280;54359;59.124;37.910;2023-02-20T12:14:58;98268.25;;;2.33;70.81
67517;BME280;54359;59.124;37.910;2023-02-20T12:17:36;98270.94;;;2.44;70.86
67517;BME280;54359;59.124;37.910;2023-02-20T12:20:16;98269.31;;;2.47;70.37
67517;BME280;54359;59.124;37.910;2023-02-20T12:22:57;98260.84;;;2.45;70.42
67517;BME280;54359;59.124;37.910;2023-02-20T12:31:40;98302.34;;;3.10;70.87
67517;BME280;54359;59.124;37.910;2023-02-20T12:45:47;98297.78;;;2.86;70.29
67517;BME280;54359;59.124;37.910;2023-02-20T12:51:53;98297.25;;;2.49;70.88
67517;BME280;54359;59.124;37.910;2023-02-20T13:01:26;98269.19;;;1.86;70.17
67517;BME280;54359;59.124;37.910;2023-02-20T13:09:02;98304.03;;;1.52;70.17
67517;BME280;54359;59.124;37.910;2023-02-20T13:11:39;98271.41;;;1.24;70.38
67517;BME280;54359;59.124;37.910;2023-02-20T13:20:14;98294.84;;;0.75;70.83
67517;BME280;54359;59.124;37.910;2023-02-20T13:22:42;98285.69;;;0.43;70.72
67517;BME280;54359;59.124;37.910;2023-02-20T13:31:23;98255.31;;;-0.30;70.32
67517;BME280;54359;59.124;37.910;2023-02-20T13:56:28;98297.13;;;-1.84;69.28
67517;BME280;54359;59.124;37.910;2023-02-20T14:06:57;98226.06;;;-4.13;69.42
67517;BME280;54359;59.124;37.910;2023-02-20T14:09:44;98284.47;;;-4.56;69.41
67517;BME280;54359;59.124;37.910;2023-02-20T14:12:20;98249.03;;;-5.41;68.73
67517;BME280;54359;59.124;37.910;2023-02-20T14:14:46;98247.22;;;-5.99;68.47
67517;BME280;54359;59.124;37.910;2023-02-20T14:17:22;98263.38;;;-6.45;69.92
67517;BME280;54359;59.124;37.910;2023-02-20T14:19:58;98261.31;;;-6.86;69.09
67517;BME280;54359;59.124;37.910;2023-02-20T14:22:34;98295.41;;;-7.03;70.09
67517;BME280;54359;59.124;37.910;2023-02-20T14:28:13;98287.81;;;-7.53;68.88
67517;BME280;54359;59.124;37.910;2023-02-20T14:30:42;98252.19;;;-7.96;69.77
67517;BME280;54359;59.124;37.910;2023-02-20T14:33:34;98254.00;;;-8.09;69.15
67517;BME280;54359;59.124;37.910;2023-02-20T14:39:09;98296.56;;;-8.20;68.91
67517;BME280;54359;59.124;37.910;2023-02-20T14:41:37;98257.22;;;-8.56;69.01
67517;BME280;54359;59.124;37.910;2023-02-20T14:44:14;98251.13;;;-8.76;69.15
67517;BME280;54359;59.124;37.910;2023-02-20T14:46:44;98305.69;;;-8.51;68.87
67517;BME280;54359;59.124;37.910;2023-02-20T14:49:14;98287.69;;;-8.75;68.38
67517;BME280;54359;59.124;37.910;2023-02-20T14:51:40;98272.81;;;-8.88;68.41
67517;BME280;54359;59.124;37.910;2023-02-20T14:54:19;98297.81;;;-8.72;69.13
67517;BME280;54359;59.124;37.910;2023-02-20T14:56:46;98311.72;;;-8.75;68.19
67517;BME280;54359;59.124;37.910;2023-02-20T14:59:32;98225.53;;;-9.29;68.58
67517;BME280;54359;59.124;37.910;2023-02-20T15:02:25;98281.69;;;-9.06;68.74
67517;BME280;54359;59.124;37.910;2023-02-20T15:05:03;98269.25;;;-9.20;68.56
67517;BME280;54359;59.124;37.910;2023-02-20T15:07:31;98304.50;;;-8.99;69.23
67517;BME280;54359;59.124;37.910;2023-02-20T15:10:01;98283.59;;;-9.16;68.85
67517;BME280;54359;59.124;37.910;2023-02-20T15:13:04;98309.53;;;-9.12;69.28
67517;BME280;54359;59.124;37.910;2023-02-20T15:15:48;98300.66;;;-9.22;68.25
67517;BME280;54359;59.124;37.910;2023-02-20T15:21:00;98299.81;;;-9.36;68.62
67517;BME280;54359;59.124;37.910;2023-02-20T15:23:33;98285.19;;;-9.44;68.35
67517;BME280;54359;59.124;37.910;2023-02-20T15:26:29;98280.53;;;-9.53;68.93
67517;BME280;54359;59.124;37.910;2023-02-20T15:29:26;98286.94;;;-9.57;68.07
67517;BME280;54359;59.124;37.910;2023-02-20T15:32:20;98287.41;;;-9.62;67.81
67517;BME280;54359;59.124;37.910;2023-02-20T15:35:34;98234.97;;;-10.07;68.59